sensor_id;sensor_type;location;lat;lon;timestamp;P1;durP1;ratioP1;P2;durP2;ratioP2
42668;SDS011;29384;42.028;21.388;2022-12-20T06:42:23;48.35;;;23.33;;
42668;SDS011;29384;42.028;21.388;2022-12-20T06:44:48;52.03;;;24.83;;
42668;SDS011;29384;42.028;21.388;2022-12-20T06:47:13;44.35;;;23.13;;
42668;SDS011;29384;42.028;21.388;2022-12-20T06:49:39;49.33;;;22.63;;
42668;SDS011;29384;42.028;21.388;2022-12-20T06:52:04;51.38;;;23.15;;
42668;SDS011;29384;42.028;21.388;2022-12-20T06:54:30;48.35;;;23.83;;
42668;SDS011;29384;42.028;21.388;2022-12-20T06:56:55;54.60;;;24.30;;
42668;SDS011;29384;42.028;21.388;2022-12-20T06:59:20;52.67;;;24.73;;
42668;SDS011;29384;42.028;21.388;2022-12-20T07:01:46;58.40;;;24.13;;
42668;SDS011;29384;42.028;21.388;2022-12-20T07:04:11;48.58;;;23.23;;
42668;SDS011;29384;42.028;21.388;2022-12-20T07:06:36;50.67;;;24.45;;
42668;SDS011;29384;42.028;21.388;2022-12-20T07:09:02;53.55;;;25.23;;
42668;SDS011;29384;42.028;21.388;2022-12-20T07:11:27;59.42;;;25.85;;
42668;SDS011;29384;42.028;21.388;2022-12-20T07:13:56;54.35;;;25.55;;
42668;SDS011;29384;42.028;21.388;2022-12-20T07:16:21;55.92;;;28.05;;
42668;SDS011;29384;42.028;21.388;2022-12-20T07:18:50;59.38;;;28.63;;
42668;SDS011;29384;42.028;21.388;2022-12-20T07:21:16;56.70;;;27.10;;
42668;SDS011;29384;42.028;21.388;2022-12-20T07:23:43;58.85;;;27.05;;
42668;SDS011;29384;42.028;21.388;2022-12-20T07:26:08;66.80;;;27.38;;
42668;SDS011;29384;42.028;21.388;2022-12-20T07:28:34;58.50;;;26.33;;
42668;SDS011;29384;42.028;21.388;2022-12-20T07:31:00;60.65;;;27.35;;
42668;SDS011;29384;42.028;21.388;2022-12-20T07:33:26;74.22;;;29.67;;
42668;SDS011;29384;42.028;21.388;2022-12-20T07:35:51;60.95;;;26.92;;
42668;SDS011;29384;42.028;21.388;2022-12-20T07:38:16;62.25;;;26.92;;
42668;SDS011;29384;42.028;21.388;2022-12-20T07:40:42;67.07;;;29.23;;
42668;SDS011;29384;42.028;21.388;2022-12-20T07:43:10;66.10;;;30.40;;
42668;SDS011;29384;42.028;21.388;2022-12-20T07:45:35;66.32;;;30.77;;
42668;SDS011;29384;42.028;21.388;2022-12-20T07:48:02;59.20;;;28.30;;
42668;SDS011;29384;42.028;21.388;2022-12-20T07:50:27;75.47;;;29.98;;
42668;SDS011;29384;42.028;21.388;2022-12-20T07:52:53;64.30;;;29.55;;
42668;SDS011;29384;42.028;21.388;2022-12-20T07:55:19;73.88;;;29.70;;
42668;SDS011;29384;42.028;21.388;2022-12-20T07:57:55;82.93;;;31.20;;
42668;SDS011;29384;42.028;21.388;2022-12-20T08:00:21;60.17;;;29.13;;
42668;SDS011;29384;42.028;21.388;2022-12-20T08:05:50;61.20;;;27.70;;
42668;SDS011;29384;42.028;21.388;2022-12-20T08:08:17;65.40;;;28.63;;
42668;SDS011;29384;42.028;21.388;2022-12-20T08:10:43;61.63;;;28.38;;
42668;SDS011;29384;42.028;21.388;2022-12-20T08:13:08;64.97;;;30.35;;
42668;SDS011;29384;42.028;21.388;2022-12-20T08:15:34;62.85;;;28.05;;
42668;SDS011;29384;42.028;21.388;2022-12-20T08:21:21;63.47;;;28.90;;
42668;SDS011;29384;42.028;21.388;2022-12-20T08:23:46;68.90;;;30.73;;
42668;SDS011;29384;42.028;21.388;2022-12-20T08:26:11;74.45;;;30.63;;
42668;SDS011;29384;42.028;21.388;2022-12-20T08:28:36;65.28;;;30.15;;
42668;SDS011;29384;42.028;21.388;2022-12-20T08:31:06;72.22;;;31.20;;
42668;SDS011;29384;42.028;21.388;2022-12-20T08:33:31;66.75;;;31.35;;
42668;SDS011;29384;42.028;21.388;2022-12-20T08:36:00;76.25;;;31.13;;
42668;SDS011;29384;42.028;21.388;2022-12-20T08:38:27;63.15;;;29.13;;
42668;SDS011;29384;42.028;21.388;2022-12-20T08:40:52;64.13;;;30.67;;
42668;SDS011;29384;42.028;21.388;2022-12-20T08:43:17;64.93;;;29.42;;
42668;SDS011;29384;42.028;21.388;2022-12-20T08:45:43;67.07;;;29.65;;
42668;SDS011;29384;42.028;21.388;2022-12-20T08:51:11;63.15;;;29.17;;
42668;SDS011;29384;42.028;21.388;2022-12-20T08:53:36;71.70;;;30.77;;
42668;SDS011;29384;42.028;21.388;2022-12-20T08:56:06;68.07;;;30.92;;
42668;SDS011;29384;42.028;21.388;2022-12-20T08:58:33;69.85;;;29.30;;
42668;SDS011;29384;42.028;21.388;2022-12-20T09:00:59;73.10;;;31.50;;
42668;SDS011;29384;42.028;21.388;2022-12-20T09:03:25;73.88;;;29.60;;
42668;SDS011;29384;42.028;21.388;2022-12-20T09:05:50;77.90;;;32.95;;
42668;SDS011;29384;42.028;21.388;2022-12-20T09:08:16;86.55;;;32.40;;
42668;SDS011;29384;42.028;21.388;2022-12-20T09:10:41;86.70;;;32.28;;
42668;SDS011;29384;42.028;21.388;2022-12-20T09:13:07;75.20;;;32.58;;
42668;SDS011;29384;42.028;21.388;2022-12-20T09:15:33;76.70;;;30.92;;
42668;SDS011;29384;42.028;21.388;2022-12-20T09:21:30;74.88;;;31.88;;
42668;SDS011;29384;42.028;21.388;2022-12-20T09:23:56;87.20;;;32.05;;
42668;SDS011;29384;42.028;21.388;2022-12-20T09:26:22;76.97;;;30.42;;
42668;SDS011;29384;42.028;21.388;2022-12-20T09:28:48;64.95;;;29.35;;
42668;SDS011;29384;42.028;21.388;2022-12-20T09:31:15;76.43;;;30.50;;
42668;SDS011;29384;42.028;21.388;2022-12-20T09:33:41;71.68;;;31.65;;
42668;SDS011;29384;42.028;21.388;2022-12-20T09:36:10;75.90;;;30.17;;
42668;SDS011;29384;42.028;21.388;2022-12-20T09:38:35;76.85;;;34.10;;
42668;SDS011;29384;42.028;21.388;2022-12-20T09:41:02;89.28;;;33.38;;
42668;SDS011;29384;42.028;21.388;2022-12-20T09:43:27;92.85;;;34.45;;
42668;SDS011;29384;42.028;21.388;2022-12-20T09:45:54;74.10;;;31.92;;
42668;SDS011;29384;42.028;21.388;2022-12-20T09:56:42;73.18;;;32.25;;
42668;SDS011;29384;42.028;21.388;2022-12-20T09:59:12;66.65;;;27.75;;
42668;SDS011;29384;42.028;21.388;2022-12-20T10:01:39;67.90;;;28.88;;
42668;SDS011;29384;42.028;21.388;2022-12-20T10:04:26;63.72;;;30.05;;
42668;SDS011;29384;42.028;21.388;2022-12-20T10:12:03;56.10;;;25.88;;
42668;SDS011;29384;42.028;21.388;2022-12-20T10:14:40;70.75;;;26.00;;
42668;SDS011;29384;42.028;21.388;2022-12-20T10:19:38;60.13;;;26.55;;
42668;SDS011;29384;42.028;21.388;2022-12-20T10:24:35;58.53;;;26.40;;
42668;SDS011;29384;42.028;21.388;2022-12-20T10:27:19;52.67;;;23.45;;
42668;SDS011;29384;42.028;21.388;2022-12-20T10:32:20;54.72;;;22.33;;
42668;SDS011;29384;42.028;21.388;2022-12-20T10:37:23;71.70;;;27.42;;
42668;SDS011;29384;42.028;21.388;2022-12-20T10:39:49;57.00;;;22.30;;
42668;SDS011;29384;42.028;21.388;2022-12-20T10:44:50;33.17;;;16.17;;
42668;SDS011;29384;42.028;21.388;2022-12-20T10:47:29;29.17;;;16.00;;
42668;SDS011;29384;42.028;21.388;2022-12-20T10:50:12;35.90;;;17.50;;
42668;SDS011;29384;42.028;21.388;2022-12-20T10:52:38;34.35;;;17.77;;
42668;SDS011;29384;42.028;21.388;2022-12-20T10:55:08;38.08;;;18.42;;
42668;SDS011;29384;42.028;21.388;2022-12-20T10:57:49;45.13;;;20.77;;
42668;SDS011;29384;42.028;21.388;2022-12-20T11:00:26;35.58;;;19.95;;
42668;SDS011;29384;42.028;21.388;2022-12-20T11:03:03;41.05;;;19.58;;
42668;SDS011;29384;42.028;21.388;2022-12-20T11:05:29;44.08;;;20.30;;
42668;SDS011;29384;42.028;21.388;2022-12-20T11:07:55;54.60;;;20.13;;
42668;SDS011;29384;42.028;21.388;2022-12-20T11:10:23;45.67;;;21.42;;
42668;SDS011;29384;42.028;21.388;2022-12-20T11:12:55;34.60;;;18.63;;
42668;SDS011;29384;42.028;21.388;2022-12-20T11:15:22;34.65;;;17.92;;
42668;SDS011;29384;42.028;21.388;2022-12-20T11:17:49;55.53;;;22.42;;
42668;SDS011;29384;42.028;21.388;2022-12-20T11:30:22;46.80;;;22.58;;
42668;SDS011;29384;42.028;21.388;2022-12-20T11:38:32;42.25;;;22.00;;
42668;SDS011;29384;42.028;21.388;2022-12-20T11:54:29;44.55;;;19.33;;
42668;SDS011;29384;42.028;21.388;2022-12-20T11:56:31;36.08;;;20.15;;
42668;SDS011;29384;42.028;21.388;2022-12-20T11:59:05;33.28;;;18.42;;
42668;SDS011;29384;42.028;21.388;2022-12-20T12:01:38;45.50;;;19.38;;
42668;SDS011;29384;42.028;21.388;2022-12-20T12:04:47;45.55;;;19.65;;
42668;SDS011;29384;42.028;21.388;2022-12-20T12:07:07;42.55;;;22.08;;
42668;SDS011;29384;42.028;21.388;2022-12-20T12:09:41;41.42;;;20.35;;
42668;SDS011;29384;42.028;21.388;2022-12-20T12:12:14;41.35;;;21.13;;
42668;SDS011;29384;42.028;21.388;2022-12-20T12:14:52;36.30;;;20.23;;
42668;SDS011;29384;42.028;21.388;2022-12-20T12:28:05;33.50;;;17.30;;
42668;SDS011;29384;42.028;21.388;2022-12-20T12:30:35;32.47;;;17.02;;
42668;SDS011;29384;42.028;21.388;2022-12-20T12:36:15;30.73;;;15.75;;
42668;SDS011;29384;42.028;21.388;2022-12-20T12:46:34;33.05;;;18.20;;
42668;SDS011;29384;42.028;21.388;2022-12-20T12:52:03;25.20;;;14.43;;
42668;SDS011;29384;42.028;21.388;2022-12-20T12:54:33;29.60;;;14.00;;
42668;SDS011;29384;42.028;21.388;2022-12-20T12:57:17;27.55;;;14.85;;
42668;SDS011;29384;42.028;21.388;2022-12-20T13:10:57;31.15;;;17.00;;
42668;SDS011;29384;42.028;21.388;2022-12-20T13:20:24;24.95;;;14.15;;
42668;SDS011;29384;42.028;21.388;2022-12-20T13:25:37;28.00;;;14.90;;
42668;SDS011;29384;42.028;21.388;2022-12-20T13:30:47;25.98;;;12.88;;
42668;SDS011;29384;42.028;21.388;2022-12-20T13:33:42;23.27;;;13.43;;
42668;SDS011;29384;42.028;21.388;2022-12-20T13:38:37;23.17;;;12.90;;
42668;SDS011;29384;42.028;21.388;2022-12-20T13:43:52;20.80;;;10.75;;
42668;SDS011;29384;42.028;21.388;2022-12-20T13:49:02;21.33;;;11.23;;
42668;SDS011;29384;42.028;21.388;2022-12-20T13:51:28;19.45;;;9.85;;
42668;SDS011;29384;42.028;21.388;2022-12-20T13:54:03;19.65;;;10.32;;
42668;SDS011;29384;42.028;21.388;2022-12-20T13:56:32;15.50;;;9.77;;
42668;SDS011;29384;42.028;21.388;2022-12-20T13:59:02;22.80;;;9.00;;
42668;SDS011;29384;42.028;21.388;2022-12-20T14:01:28;16.77;;;10.15;;
42668;SDS011;29384;42.028;21.388;2022-12-20T14:03:55;15.48;;;9.98;;
42668;SDS011;29384;42.028;21.388;2022-12-20T14:06:21;17.05;;;10.30;;
42668;SDS011;29384;42.028;21.388;2022-12-20T14:08:48;14.15;;;9.10;;
42668;SDS011;29384;42.028;21.388;2022-12-20T14:14:10;15.95;;;9.77;;
42668;SDS011;29384;42.028;21.388;2022-12-20T14:16:36;11.40;;;8.60;;
42668;SDS011;29384;42.028;21.388;2022-12-20T14:19:03;18.05;;;9.48;;
42668;SDS011;29384;42.028;21.388;2022-12-20T14:21:29;16.50;;;9.50;;
42668;SDS011;29384;42.028;21.388;2022-12-20T14:23:55;135.55;;;61.20;;
42668;SDS011;29384;42.028;21.388;2022-12-20T14:26:26;220.02;;;95.65;;
42668;SDS011;29384;42.028;21.388;2022-12-20T14:28:52;124.70;;;55.90;;
42668;SDS011;29384;42.028;21.388;2022-12-20T14:31:23;55.33;;;26.05;;
42668;SDS011;29384;42.028;21.388;2022-12-20T14:33:49;23.17;;;14.75;;
42668;SDS011;29384;42.028;21.388;2022-12-20T14:38:41;18.40;;;10.93;;
42668;SDS011;29384;42.028;21.388;2022-12-20T14:43:54;15.20;;;9.55;;
42668;SDS011;29384;42.028;21.388;2022-12-20T14:46:20;18.58;;;9.85;;
42668;SDS011;29384;42.028;21.388;2022-12-20T14:48:46;21.63;;;9.65;;
42668;SDS011;29384;42.028;21.388;2022-12-20T14:51:12;20.27;;;11.35;;
42668;SDS011;29384;42.028;21.388;2022-12-20T14:53:38;25.63;;;13.23;;
42668;SDS011;29384;42.028;21.388;2022-12-20T14:56:04;26.67;;;14.88;;
42668;SDS011;29384;42.028;21.388;2022-12-20T14:58:31;24.27;;;14.23;;
42668;SDS011;29384;42.028;21.388;2022-12-20T15:01:00;31.98;;;16.02;;
42668;SDS011;29384;42.028;21.388;2022-12-20T15:03:27;35.35;;;16.33;;
42668;SDS011;29384;42.028;21.388;2022-12-20T15:05:53;46.60;;;19.73;;
42668;SDS011;29384;42.028;21.388;2022-12-20T15:08:21;44.38;;;21.23;;
42668;SDS011;29384;42.028;21.388;2022-12-20T15:11:21;47.95;;;22.98;;
42668;SDS011;29384;42.028;21.388;2022-12-20T15:13:42;54.63;;;25.83;;
42668;SDS011;29384;42.028;21.388;2022-12-20T15:16:28;44.92;;;24.02;;
42668;SDS011;29384;42.028;21.388;2022-12-20T15:18:54;46.20;;;23.50;;
42668;SDS011;29384;42.028;21.388;2022-12-20T15:21:27;56.28;;;25.95;;
42668;SDS011;29384;42.028;21.388;2022-12-20T15:23:53;58.53;;;24.83;;
42668;SDS011;29384;42.028;21.388;2022-12-20T15:26:20;53.08;;;25.63;;
42668;SDS011;29384;42.028;21.388;2022-12-20T15:28:46;37.50;;;18.13;;
42668;SDS011;29384;42.028;21.388;2022-12-20T15:31:12;36.25;;;18.75;;
42668;SDS011;29384;42.028;21.388;2022-12-20T15:33:38;47.20;;;19.65;;
42668;SDS011;29384;42.028;21.388;2022-12-20T15:36:04;43.17;;;21.35;;
42668;SDS011;29384;42.028;21.388;2022-12-20T15:38:30;38.40;;;20.55;;
42668;SDS011;29384;42.028;21.388;2022-12-20T15:41:02;43.00;;;22.92;;
42668;SDS011;29384;42.028;21.388;2022-12-20T15:43:36;48.13;;;22.17;;
42668;SDS011;29384;42.028;21.388;2022-12-20T15:46:02;59.65;;;24.10;;
42668;SDS011;29384;42.028;21.388;2022-12-20T15:48:27;51.88;;;23.02;;
42668;SDS011;29384;42.028;21.388;2022-12-20T15:50:54;44.05;;;22.10;;
42668;SDS011;29384;42.028;21.388;2022-12-20T15:53:24;45.85;;;20.67;;
42668;SDS011;29384;42.028;21.388;2022-12-20T15:55:52;63.45;;;23.92;;
42668;SDS011;29384;42.028;21.388;2022-12-20T15:58:17;56.75;;;25.13;;
42668;SDS011;29384;42.028;21.388;2022-12-20T16:00:42;62.97;;;23.33;;
42668;SDS011;29384;42.028;21.388;2022-12-20T16:03:15;50.67;;;22.88;;
42668;SDS011;29384;42.028;21.388;2022-12-20T16:05:41;40.75;;;18.92;;
42668;SDS011;29384;42.028;21.388;2022-12-20T16:08:06;42.20;;;18.52;;
42668;SDS011;29384;42.028;21.388;2022-12-20T16:10:31;42.17;;;17.00;;
42668;SDS011;29384;42.028;21.388;2022-12-20T16:12:57;58.95;;;17.00;;
42668;SDS011;29384;42.028;21.388;2022-12-20T16:15:22;60.22;;;16.42;;
42668;SDS011;29384;42.028;21.388;2022-12-20T16:17:47;37.28;;;17.67;;
42668;SDS011;29384;42.028;21.388;2022-12-20T16:23:20;38.42;;;18.10;;
42668;SDS011;29384;42.028;21.388;2022-12-20T16:25:48;37.60;;;17.27;;
42668;SDS011;29384;42.028;21.388;2022-12-20T16:28:15;34.63;;;16.70;;
42668;SDS011;29384;42.028;21.388;2022-12-20T16:30:40;33.05;;;16.98;;
42668;SDS011;29384;42.028;21.388;2022-12-20T16:33:05;39.00;;;18.77;;
42668;SDS011;29384;42.028;21.388;2022-12-20T16:35:35;41.80;;;17.98;;
42668;SDS011;29384;42.028;21.388;2022-12-20T16:38:03;34.13;;;17.65;;
42668;SDS011;29384;42.028;21.388;2022-12-20T16:40:29;38.50;;;18.00;;
42668;SDS011;29384;42.028;21.388;2022-12-20T16:42:55;37.40;;;17.55;;
42668;SDS011;29384;42.028;21.388;2022-12-20T16:45:28;32.22;;;16.10;;
42668;SDS011;29384;42.028;21.388;2022-12-20T16:47:54;32.50;;;16.10;;
42668;SDS011;29384;42.028;21.388;2022-12-20T16:53:22;28.77;;;16.55;;
42668;SDS011;29384;42.028;21.388;2022-12-20T16:55:47;34.47;;;18.90;;
42668;SDS011;29384;42.028;21.388;2022-12-20T16:58:13;44.00;;;19.67;;
42668;SDS011;29384;42.028;21.388;2022-12-20T17:00:38;46.97;;;27.95;;
42668;SDS011;29384;42.028;21.388;2022-12-20T17:03:03;55.90;;;27.15;;
42668;SDS011;29384;42.028;21.388;2022-12-20T17:08:33;57.60;;;29.23;;
42668;SDS011;29384;42.028;21.388;2022-12-20T17:10:58;59.70;;;29.58;;
42668;SDS011;29384;42.028;21.388;2022-12-20T17:13:24;79.88;;;37.20;;
42668;SDS011;29384;42.028;21.388;2022-12-20T17:15:49;107.25;;;47.08;;
42668;SDS011;29384;42.028;21.388;2022-12-20T17:18:15;122.53;;;51.17;;
42668;SDS011;29384;42.028;21.388;2022-12-20T17:23:44;95.18;;;45.58;;
42668;SDS011;29384;42.028;21.388;2022-12-20T17:26:31;95.25;;;45.95;;
42668;SDS011;29384;42.028;21.388;2022-12-20T17:28:55;93.85;;;44.28;;
42668;SDS011;29384;42.028;21.388;2022-12-20T17:31:29;94.60;;;44.78;;
42668;SDS011;29384;42.028;21.388;2022-12-20T17:34:00;93.75;;;43.95;;
42668;SDS011;29384;42.028;21.388;2022-12-20T17:36:25;87.53;;;43.10;;
42668;SDS011;29384;42.028;21.388;2022-12-20T17:38:51;85.43;;;40.53;;
42668;SDS011;29384;42.028;21.388;2022-12-20T17:41:20;91.38;;;41.65;;
42668;SDS011;29384;42.028;21.388;2022-12-20T17:43:45;82.68;;;42.38;;
42668;SDS011;29384;42.028;21.388;2022-12-20T17:46:11;81.88;;;40.55;;
42668;SDS011;29384;42.028;21.388;2022-12-20T17:48:37;93.80;;;43.88;;
42668;SDS011;29384;42.028;21.388;2022-12-20T17:51:04;77.07;;;38.15;;
42668;SDS011;29384;42.028;21.388;2022-12-20T17:53:33;80.47;;;37.13;;
42668;SDS011;29384;42.028;21.388;2022-12-20T17:55:58;95.07;;;42.40;;
42668;SDS011;29384;42.028;21.388;2022-12-20T17:58:24;83.95;;;41.13;;
42668;SDS011;29384;42.028;21.388;2022-12-20T18:00:49;85.50;;;42.95;;
42668;SDS011;29384;42.028;21.388;2022-12-20T18:03:14;85.22;;;41.40;;
42668;SDS011;29384;42.028;21.388;2022-12-20T18:08:46;111.38;;;47.78;;
42668;SDS011;29384;42.028;21.388;2022-12-20T18:11:11;100.72;;;45.92;;
42668;SDS011;29384;42.028;21.388;2022-12-20T18:13:40;100.45;;;45.47;;
42668;SDS011;29384;42.028;21.388;2022-12-20T18:16:06;89.72;;;42.75;;
42668;SDS011;29384;42.028;21.388;2022-12-20T18:18:32;99.40;;;42.60;;
42668;SDS011;29384;42.028;21.388;2022-12-20T18:24:00;87.18;;;40.35;;
42668;SDS011;29384;42.028;21.388;2022-12-20T18:26:27;93.20;;;44.00;;
42668;SDS011;29384;42.028;21.388;2022-12-20T18:28:54;92.15;;;43.25;;
42668;SDS011;29384;42.028;21.388;2022-12-20T18:31:20;91.70;;;43.28;;
42668;SDS011;29384;42.028;21.388;2022-12-20T18:33:46;80.38;;;40.38;;
42668;SDS011;29384;42.028;21.388;2022-12-20T18:39:28;69.32;;;33.08;;
42668;SDS011;29384;42.028;21.388;2022-12-20T18:41:53;71.65;;;34.78;;
42668;SDS011;29384;42.028;21.388;2022-12-20T18:44:18;67.80;;;34.03;;
42668;SDS011;29384;42.028;21.388;2022-12-20T18:46:43;66.47;;;32.75;;
42668;SDS011;29384;42.028;21.388;2022-12-20T18:49:09;68.97;;;32.72;;
42668;SDS011;29384;42.028;21.388;2022-12-20T18:51:34;67.35;;;32.80;;
42668;SDS011;29384;42.028;21.388;2022-12-20T18:54:03;68.60;;;32.15;;
42668;SDS011;29384;42.028;21.388;2022-12-20T18:56:30;60.33;;;29.38;;
42668;SDS011;29384;42.028;21.388;2022-12-20T18:58:56;69.35;;;31.13;;
42668;SDS011;29384;42.028;21.388;2022-12-20T19:01:23;71.35;;;32.33;;
42668;SDS011;29384;42.028;21.388;2022-12-20T19:03:50;59.45;;;31.20;;
42668;SDS011;29384;42.028;21.388;2022-12-20T19:09:18;55.78;;;26.10;;
42668;SDS011;29384;42.028;21.388;2022-12-20T19:11:43;56.80;;;27.40;;
42668;SDS011;29384;42.028;21.388;2022-12-20T19:14:09;52.90;;;26.73;;
42668;SDS011;29384;42.028;21.388;2022-12-20T19:16:35;62.10;;;29.00;;
42668;SDS011;29384;42.028;21.388;2022-12-20T19:19:03;50.22;;;26.60;;
42668;SDS011;29384;42.028;21.388;2022-12-20T19:24:31;45.33;;;22.63;;
42668;SDS011;29384;42.028;21.388;2022-12-20T19:26:56;50.03;;;23.88;;
42668;SDS011;29384;42.028;21.388;2022-12-20T19:29:22;49.47;;;21.58;;
42668;SDS011;29384;42.028;21.388;2022-12-20T19:31:47;52.63;;;23.35;;
42668;SDS011;29384;42.028;21.388;2022-12-20T19:34:12;45.38;;;21.25;;
42668;SDS011;29384;42.028;21.388;2022-12-20T19:39:41;50.20;;;21.65;;
42668;SDS011;29384;42.028;21.388;2022-12-20T19:42:07;50.17;;;24.45;;
42668;SDS011;29384;42.028;21.388;2022-12-20T19:44:33;57.25;;;23.05;;
42668;SDS011;29384;42.028;21.388;2022-12-20T19:46:58;56.63;;;26.33;;
42668;SDS011;29384;42.028;21.388;2022-12-20T19:49:23;56.22;;;24.83;;
42668;SDS011;29384;42.028;21.388;2022-12-20T19:54:51;40.03;;;20.55;;
42668;SDS011;29384;42.028;21.388;2022-12-20T19:57:16;45.03;;;21.67;;
42668;SDS011;29384;42.028;21.388;2022-12-20T19:59:42;46.00;;;22.67;;
42668;SDS011;29384;42.028;21.388;2022-12-20T20:02:10;55.97;;;26.77;;
42668;SDS011;29384;42.028;21.388;2022-12-20T20:04:36;53.88;;;26.67;;
42668;SDS011;29384;42.028;21.388;2022-12-20T20:07:01;62.70;;;31.17;;
42668;SDS011;29384;42.028;21.388;2022-12-20T20:09:27;72.20;;;34.45;;
42668;SDS011;29384;42.028;21.388;2022-12-20T20:11:54;95.30;;;44.25;;
42668;SDS011;29384;42.028;21.388;2022-12-20T20:14:19;109.78;;;52.58;;
42668;SDS011;29384;42.028;21.388;2022-12-20T20:16:45;111.07;;;48.55;;
42668;SDS011;29384;42.028;21.388;2022-12-20T20:19:10;117.43;;;53.28;;
42668;SDS011;29384;42.028;21.388;2022-12-20T20:24:38;108.45;;;49.40;;
42668;SDS011;29384;42.028;21.388;2022-12-20T20:27:03;94.93;;;46.22;;
42668;SDS011;29384;42.028;21.388;2022-12-20T20:29:29;93.95;;;43.47;;
42668;SDS011;29384;42.028;21.388;2022-12-20T20:31:54;91.07;;;45.47;;
42668;SDS011;29384;42.028;21.388;2022-12-20T20:34:20;88.43;;;44.70;;
42668;SDS011;29384;42.028;21.388;2022-12-20T20:39:48;86.80;;;40.00;;
42668;SDS011;29384;42.028;21.388;2022-12-20T20:42:13;83.63;;;38.53;;
42668;SDS011;29384;42.028;21.388;2022-12-20T20:44:38;83.80;;;37.83;;
42668;SDS011;29384;42.028;21.388;2022-12-20T20:47:03;76.47;;;34.05;;
42668;SDS011;29384;42.028;21.388;2022-12-20T20:49:29;79.28;;;33.40;;
42668;SDS011;29384;42.028;21.388;2022-12-20T20:55:01;75.60;;;35.90;;
42668;SDS011;29384;42.028;21.388;2022-12-20T20:57:27;86.25;;;35.72;;
42668;SDS011;29384;42.028;21.388;2022-12-20T20:59:54;74.20;;;32.72;;
42668;SDS011;29384;42.028;21.388;2022-12-20T21:02:19;57.85;;;30.13;;
42668;SDS011;29384;42.028;21.388;2022-12-20T21:04:47;59.30;;;27.83;;
42668;SDS011;29384;42.028;21.388;2022-12-20T21:10:15;45.67;;;22.30;;
42668;SDS011;29384;42.028;21.388;2022-12-20T21:12:40;50.33;;;24.48;;
42668;SDS011;29384;42.028;21.388;2022-12-20T21:15:06;46.13;;;20.73;;
42668;SDS011;29384;42.028;21.388;2022-12-20T21:17:32;43.30;;;19.27;;
42668;SDS011;29384;42.028;21.388;2022-12-20T21:19:57;30.45;;;17.45;;
42668;SDS011;29384;42.028;21.388;2022-12-20T21:25:25;51.28;;;22.60;;
42668;SDS011;29384;42.028;21.388;2022-12-20T21:27:50;39.90;;;20.75;;
42668;SDS011;29384;42.028;21.388;2022-12-20T21:30:16;39.83;;;20.98;;
42668;SDS011;29384;42.028;21.388;2022-12-20T21:32:41;44.67;;;20.38;;
42668;SDS011;29384;42.028;21.388;2022-12-20T21:35:07;36.90;;;17.17;;
42668;SDS011;29384;42.028;21.388;2022-12-20T21:40:34;39.58;;;17.88;;
42668;SDS011;29384;42.028;21.388;2022-12-20T21:43:00;39.60;;;19.38;;
42668;SDS011;29384;42.028;21.388;2022-12-20T21:45:25;39.70;;;18.00;;
42668;SDS011;29384;42.028;21.388;2022-12-20T21:47:50;35.03;;;17.83;;
42668;SDS011;29384;42.028;21.388;2022-12-20T21:50:16;35.88;;;17.70;;
42668;SDS011;29384;42.028;21.388;2022-12-20T21:55:43;36.05;;;18.95;;
42668;SDS011;29384;42.028;21.388;2022-12-20T21:58:08;34.95;;;16.85;;
42668;SDS011;29384;42.028;21.388;2022-12-20T22:00:34;40.58;;;18.50;;
42668;SDS011;29384;42.028;21.388;2022-12-20T22:02:59;38.35;;;18.45;;
42668;SDS011;29384;42.028;21.388;2022-12-20T22:05:24;39.28;;;18.45;;
42668;SDS011;29384;42.028;21.388;2022-12-20T22:11:11;38.85;;;18.02;;
42668;SDS011;29384;42.028;21.388;2022-12-20T22:13:37;43.85;;;18.83;;
42668;SDS011;29384;42.028;21.388;2022-12-20T22:18:34;40.17;;;19.17;;
42668;SDS011;29384;42.028;21.388;2022-12-20T22:21:03;40.10;;;19.58;;
42668;SDS011;29384;42.028;21.388;2022-12-20T22:23:28;53.78;;;21.92;;
42668;SDS011;29384;42.028;21.388;2022-12-20T22:25:54;49.50;;;23.25;;
42668;SDS011;29384;42.028;21.388;2022-12-20T22:28:19;53.05;;;23.17;;
42668;SDS011;29384;42.028;21.388;2022-12-20T22:30:45;52.20;;;25.65;;
42668;SDS011;29384;42.028;21.388;2022-12-20T22:33:10;54.28;;;24.50;;
42668;SDS011;29384;42.028;21.388;2022-12-20T22:35:36;64.82;;;26.67;;
42668;SDS011;29384;42.028;21.388;2022-12-20T22:43:59;73.97;;;35.53;;
42668;SDS011;29384;42.028;21.388;2022-12-20T22:46:24;73.95;;;37.28;;
42668;SDS011;29384;42.028;21.388;2022-12-20T22:48:50;70.43;;;32.88;;
42668;SDS011;29384;42.028;21.388;2022-12-20T22:51:19;71.20;;;35.08;;
42668;SDS011;29384;42.028;21.388;2022-12-20T22:53:45;65.13;;;33.85;;
42668;SDS011;29384;42.028;21.388;2022-12-20T22:56:11;69.40;;;32.75;;
42668;SDS011;29384;42.028;21.388;2022-12-20T22:58:38;66.95;;;33.08;;
42668;SDS011;29384;42.028;21.388;2022-12-20T23:01:04;70.28;;;32.80;;
42668;SDS011;29384;42.028;21.388;2022-12-20T23:03:30;72.53;;;34.67;;
42668;SDS011;29384;42.028;21.388;2022-12-20T23:05:57;68.75;;;34.60;;
42668;SDS011;29384;42.028;21.388;2022-12-20T23:08:23;70.15;;;34.80;;
42668;SDS011;29384;42.028;21.388;2022-12-20T23:10:48;76.28;;;33.92;;
42668;SDS011;29384;42.028;21.388;2022-12-20T23:13:32;55.25;;;26.58;;
42668;SDS011;29384;42.028;21.388;2022-12-20T23:16:16;64.78;;;34.75;;
42668;SDS011;29384;42.028;21.388;2022-12-20T23:18:41;69.20;;;33.10;;
42668;SDS011;29384;42.028;21.388;2022-12-20T23:21:06;66.70;;;32.50;;
42668;SDS011;29384;42.028;21.388;2022-12-20T23:23:50;65.68;;;32.40;;
42668;SDS011;29384;42.028;21.388;2022-12-20T23:26:16;56.80;;;30.08;;
42668;SDS011;29384;42.028;21.388;2022-12-20T23:28:42;56.80;;;29.20;;
42668;SDS011;29384;42.028;21.388;2022-12-20T23:31:07;71.10;;;34.15;;
42668;SDS011;29384;42.028;21.388;2022-12-20T23:33:33;70.88;;;30.77;;
42668;SDS011;29384;42.028;21.388;2022-12-20T23:35:59;76.90;;;34.67;;
42668;SDS011;29384;42.028;21.388;2022-12-20T23:38:25;70.38;;;34.00;;
42668;SDS011;29384;42.028;21.388;2022-12-20T23:40:50;74.95;;;37.70;;
42668;SDS011;29384;42.028;21.388;2022-12-20T23:43:16;71.00;;;33.80;;
42668;SDS011;29384;42.028;21.388;2022-12-20T23:45:42;83.03;;;34.92;;
42668;SDS011;29384;42.028;21.388;2022-12-20T23:48:07;80.50;;;33.80;;
42668;SDS011;29384;42.028;21.388;2022-12-20T23:50:32;65.15;;;29.65;;
42668;SDS011;29384;42.028;21.388;2022-12-20T23:58:25;50.28;;;26.52;;
